sensor_id;sensor_type;location;lat;lon;timestamp;P1;durP1;ratioP1;P2;durP2;ratioP2
52978;SDS011;51106;53.186;6.598;2022-07-04T00:01:45;4.85;;;3.00;;
52978;SDS011;51106;53.186;6.598;2022-07-04T00:03:47;6.63;;;3.10;;
52978;SDS011;51106;53.186;6.598;2022-07-04T00:05:49;6.60;;;2.97;;
52978;SDS011;51106;53.186;6.598;2022-07-04T00:07:51;4.07;;;2.90;;
52978;SDS011;51106;53.186;6.598;2022-07-04T00:09:56;5.88;;;3.17;;
52978;SDS011;51106;53.186;6.598;2022-07-04T00:11:58;5.10;;;3.60;;
52978;SDS011;51106;53.186;6.598;2022-07-04T00:14:00;4.20;;;2.92;;
52978;SDS011;51106;53.186;6.598;2022-07-04T00:16:03;6.57;;;3.42;;
52978;SDS011;51106;53.186;6.598;2022-07-04T00:18:05;4.30;;;3.10;;
52978;SDS011;51106;53.186;6.598;2022-07-04T00:20:08;4.35;;;3.08;;
52978;SDS011;51106;53.186;6.598;2022-07-04T00:22:11;9.07;;;3.00;;
52978;SDS011;51106;53.186;6.598;2022-07-04T00:24:13;6.72;;;3.22;;
52978;SDS011;51106;53.186;6.598;2022-07-04T00:26:16;6.32;;;4.20;;
52978;SDS011;51106;53.186;6.598;2022-07-04T00:28:18;4.88;;;3.28;;
52978;SDS011;51106;53.186;6.598;2022-07-04T00:30:20;6.05;;;3.58;;
52978;SDS011;51106;53.186;6.598;2022-07-04T00:32:22;6.22;;;3.53;;
52978;SDS011;51106;53.186;6.598;2022-07-04T00:34:24;6.38;;;3.95;;
52978;SDS011;51106;53.186;6.598;2022-07-04T00:36:26;5.72;;;3.50;;
52978;SDS011;51106;53.186;6.598;2022-07-04T00:38:29;4.63;;;3.55;;
52978;SDS011;51106;53.186;6.598;2022-07-04T00:40:37;6.30;;;3.70;;
52978;SDS011;51106;53.186;6.598;2022-07-04T00:42:44;5.18;;;3.50;;
52978;SDS011;51106;53.186;6.598;2022-07-04T00:44:46;4.80;;;3.28;;
52978;SDS011;51106;53.186;6.598;2022-07-04T00:46:48;7.53;;;3.40;;
52978;SDS011;51106;53.186;6.598;2022-07-04T00:48:51;6.22;;;3.40;;
52978;SDS011;51106;53.186;6.598;2022-07-04T00:50:53;4.78;;;3.42;;
52978;SDS011;51106;53.186;6.598;2022-07-04T00:52:55;5.45;;;3.55;;
52978;SDS011;51106;53.186;6.598;2022-07-04T00:54:57;5.38;;;3.50;;
52978;SDS011;51106;53.186;6.598;2022-07-04T00:57:02;7.47;;;3.90;;
52978;SDS011;51106;53.186;6.598;2022-07-04T00:59:05;6.55;;;3.80;;
52978;SDS011;51106;53.186;6.598;2022-07-04T01:01:07;8.18;;;3.50;;
52978;SDS011;51106;53.186;6.598;2022-07-04T01:03:09;8.30;;;3.78;;
52978;SDS011;51106;53.186;6.598;2022-07-04T01:05:12;7.85;;;4.00;;
52978;SDS011;51106;53.186;6.598;2022-07-04T01:07:15;7.18;;;3.83;;
52978;SDS011;51106;53.186;6.598;2022-07-04T01:09:18;4.97;;;3.40;;
52978;SDS011;51106;53.186;6.598;2022-07-04T01:11:21;6.00;;;3.97;;
52978;SDS011;51106;53.186;6.598;2022-07-04T01:13:23;6.30;;;4.00;;
52978;SDS011;51106;53.186;6.598;2022-07-04T01:15:25;5.38;;;3.58;;
52978;SDS011;51106;53.186;6.598;2022-07-04T01:17:30;7.20;;;3.63;;
52978;SDS011;51106;53.186;6.598;2022-07-04T01:19:33;6.80;;;3.90;;
52978;SDS011;51106;53.186;6.598;2022-07-04T01:21:35;6.80;;;3.60;;
52978;SDS011;51106;53.186;6.598;2022-07-04T01:23:37;5.28;;;3.72;;
52978;SDS011;51106;53.186;6.598;2022-07-04T01:25:40;9.93;;;4.28;;
52978;SDS011;51106;53.186;6.598;2022-07-04T01:27:43;5.97;;;3.60;;
52978;SDS011;51106;53.186;6.598;2022-07-04T01:29:45;5.68;;;3.83;;
52978;SDS011;51106;53.186;6.598;2022-07-04T01:31:47;5.50;;;3.75;;
52978;SDS011;51106;53.186;6.598;2022-07-04T01:33:49;7.00;;;3.97;;
52978;SDS011;51106;53.186;6.598;2022-07-04T01:35:51;5.00;;;4.13;;
52978;SDS011;51106;53.186;6.598;2022-07-04T01:37:53;4.80;;;3.95;;
52978;SDS011;51106;53.186;6.598;2022-07-04T01:39:55;4.18;;;3.78;;
52978;SDS011;51106;53.186;6.598;2022-07-04T01:41:57;5.97;;;4.03;;
52978;SDS011;51106;53.186;6.598;2022-07-04T01:43:59;7.63;;;4.47;;
52978;SDS011;51106;53.186;6.598;2022-07-04T01:46:01;6.75;;;4.15;;
52978;SDS011;51106;53.186;6.598;2022-07-04T01:48:05;5.90;;;4.50;;
52978;SDS011;51106;53.186;6.598;2022-07-04T01:50:09;7.10;;;4.45;;
52978;SDS011;51106;53.186;6.598;2022-07-04T01:52:13;6.40;;;4.53;;
52978;SDS011;51106;53.186;6.598;2022-07-04T01:54:17;7.00;;;4.53;;
52978;SDS011;51106;53.186;6.598;2022-07-04T01:56:19;8.00;;;4.78;;
52978;SDS011;51106;53.186;6.598;2022-07-04T01:58:22;7.97;;;4.57;;
52978;SDS011;51106;53.186;6.598;2022-07-04T02:00:24;6.57;;;4.88;;
52978;SDS011;51106;53.186;6.598;2022-07-04T02:02:45;7.55;;;4.72;;
52978;SDS011;51106;53.186;6.598;2022-07-04T02:04:47;6.45;;;4.80;;
52978;SDS011;51106;53.186;6.598;2022-07-04T02:06:52;8.07;;;4.82;;
52978;SDS011;51106;53.186;6.598;2022-07-04T02:08:54;7.32;;;4.88;;
52978;SDS011;51106;53.186;6.598;2022-07-04T02:11:15;5.93;;;4.60;;
52978;SDS011;51106;53.186;6.598;2022-07-04T02:13:17;5.85;;;4.38;;
52978;SDS011;51106;53.186;6.598;2022-07-04T02:15:19;5.93;;;4.43;;
52978;SDS011;51106;53.186;6.598;2022-07-04T02:17:22;11.40;;;4.85;;
52978;SDS011;51106;53.186;6.598;2022-07-04T02:19:24;6.70;;;4.50;;
52978;SDS011;51106;53.186;6.598;2022-07-04T02:21:26;8.05;;;4.68;;
52978;SDS011;51106;53.186;6.598;2022-07-04T02:23:28;7.57;;;4.85;;
52978;SDS011;51106;53.186;6.598;2022-07-04T02:25:30;7.55;;;4.88;;
52978;SDS011;51106;53.186;6.598;2022-07-04T02:27:33;7.65;;;5.15;;
52978;SDS011;51106;53.186;6.598;2022-07-04T02:29:35;7.18;;;4.68;;
52978;SDS011;51106;53.186;6.598;2022-07-04T02:31:37;6.10;;;4.68;;
52978;SDS011;51106;53.186;6.598;2022-07-04T02:33:39;5.28;;;4.70;;
52978;SDS011;51106;53.186;6.598;2022-07-04T02:35:41;7.20;;;4.57;;
52978;SDS011;51106;53.186;6.598;2022-07-04T02:37:43;8.23;;;4.93;;
52978;SDS011;51106;53.186;6.598;2022-07-04T02:39:46;6.40;;;4.07;;
52978;SDS011;51106;53.186;6.598;2022-07-04T02:41:48;7.88;;;5.00;;
52978;SDS011;51106;53.186;6.598;2022-07-04T02:43:58;6.70;;;5.00;;
52978;SDS011;51106;53.186;6.598;2022-07-04T02:46:00;9.23;;;5.25;;
52978;SDS011;51106;53.186;6.598;2022-07-04T02:48:02;6.57;;;4.60;;
52978;SDS011;51106;53.186;6.598;2022-07-04T02:50:05;7.15;;;4.63;;
52978;SDS011;51106;53.186;6.598;2022-07-04T02:52:07;6.45;;;4.43;;
52978;SDS011;51106;53.186;6.598;2022-07-04T02:54:09;6.78;;;4.90;;
52978;SDS011;51106;53.186;6.598;2022-07-04T02:56:12;6.70;;;4.93;;
52978;SDS011;51106;53.186;6.598;2022-07-04T02:58:13;6.00;;;4.63;;
52978;SDS011;51106;53.186;6.598;2022-07-04T03:00:16;8.60;;;5.05;;
52978;SDS011;51106;53.186;6.598;2022-07-04T03:02:18;7.50;;;5.45;;
52978;SDS011;51106;53.186;6.598;2022-07-04T03:04:20;9.43;;;5.75;;
52978;SDS011;51106;53.186;6.598;2022-07-04T03:06:22;8.75;;;5.75;;
52978;SDS011;51106;53.186;6.598;2022-07-04T03:08:25;5.82;;;4.63;;
52978;SDS011;51106;53.186;6.598;2022-07-04T03:10:27;9.85;;;5.57;;
52978;SDS011;51106;53.186;6.598;2022-07-04T03:12:29;7.32;;;6.20;;
52978;SDS011;51106;53.186;6.598;2022-07-04T03:14:31;7.55;;;5.70;;
52978;SDS011;51106;53.186;6.598;2022-07-04T03:16:33;9.77;;;4.95;;
52978;SDS011;51106;53.186;6.598;2022-07-04T03:18:35;9.80;;;5.70;;
52978;SDS011;51106;53.186;6.598;2022-07-04T03:20:40;9.30;;;6.10;;
52978;SDS011;51106;53.186;6.598;2022-07-04T03:22:42;9.18;;;6.15;;
52978;SDS011;51106;53.186;6.598;2022-07-04T03:24:44;8.05;;;6.15;;
52978;SDS011;51106;53.186;6.598;2022-07-04T03:26:47;8.20;;;6.13;;
52978;SDS011;51106;53.186;6.598;2022-07-04T03:28:50;10.00;;;6.63;;
52978;SDS011;51106;53.186;6.598;2022-07-04T03:30:53;10.45;;;6.65;;
52978;SDS011;51106;53.186;6.598;2022-07-04T03:32:55;9.00;;;6.22;;
52978;SDS011;51106;53.186;6.598;2022-07-04T03:34:57;10.90;;;5.68;;
52978;SDS011;51106;53.186;6.598;2022-07-04T03:36:59;9.00;;;6.55;;
52978;SDS011;51106;53.186;6.598;2022-07-04T03:39:01;7.53;;;6.18;;
52978;SDS011;51106;53.186;6.598;2022-07-04T03:41:03;10.43;;;6.50;;
52978;SDS011;51106;53.186;6.598;2022-07-04T03:43:06;9.82;;;6.60;;
52978;SDS011;51106;53.186;6.598;2022-07-04T03:45:08;12.38;;;6.57;;
52978;SDS011;51106;53.186;6.598;2022-07-04T03:47:11;9.23;;;6.68;;
52978;SDS011;51106;53.186;6.598;2022-07-04T03:49:13;10.40;;;6.70;;
52978;SDS011;51106;53.186;6.598;2022-07-04T03:51:15;9.05;;;6.00;;
52978;SDS011;51106;53.186;6.598;2022-07-04T03:53:17;8.52;;;6.22;;
52978;SDS011;51106;53.186;6.598;2022-07-04T03:55:21;9.75;;;7.00;;
52978;SDS011;51106;53.186;6.598;2022-07-04T03:57:26;7.75;;;6.60;;
52978;SDS011;51106;53.186;6.598;2022-07-04T03:59:28;8.65;;;6.25;;
52978;SDS011;51106;53.186;6.598;2022-07-04T04:01:31;9.02;;;6.50;;
52978;SDS011;51106;53.186;6.598;2022-07-04T04:03:33;8.70;;;6.53;;
52978;SDS011;51106;53.186;6.598;2022-07-04T04:05:55;11.30;;;6.00;;
52978;SDS011;51106;53.186;6.598;2022-07-04T04:07:57;8.15;;;5.55;;
52978;SDS011;51106;53.186;6.598;2022-07-04T04:10:01;7.22;;;5.50;;
52978;SDS011;51106;53.186;6.598;2022-07-04T04:12:03;7.57;;;5.25;;
52978;SDS011;51106;53.186;6.598;2022-07-04T04:14:05;8.60;;;6.57;;
52978;SDS011;51106;53.186;6.598;2022-07-04T04:16:07;7.80;;;5.70;;
52978;SDS011;51106;53.186;6.598;2022-07-04T04:18:09;6.20;;;5.05;;
52978;SDS011;51106;53.186;6.598;2022-07-04T04:20:11;7.60;;;5.40;;
52978;SDS011;51106;53.186;6.598;2022-07-04T04:22:13;8.90;;;5.53;;
52978;SDS011;51106;53.186;6.598;2022-07-04T04:24:15;8.68;;;5.15;;
52978;SDS011;51106;53.186;6.598;2022-07-04T04:26:17;9.15;;;5.93;;
52978;SDS011;51106;53.186;6.598;2022-07-04T04:28:19;8.23;;;5.20;;
52978;SDS011;51106;53.186;6.598;2022-07-04T04:30:22;7.75;;;5.30;;
52978;SDS011;51106;53.186;6.598;2022-07-04T04:32:24;8.43;;;5.13;;
52978;SDS011;51106;53.186;6.598;2022-07-04T04:34:26;8.70;;;5.97;;
52978;SDS011;51106;53.186;6.598;2022-07-04T04:36:28;7.47;;;6.00;;
52978;SDS011;51106;53.186;6.598;2022-07-04T04:38:29;10.93;;;5.57;;
52978;SDS011;51106;53.186;6.598;2022-07-04T04:40:32;8.35;;;4.95;;
52978;SDS011;51106;53.186;6.598;2022-07-04T04:42:34;7.97;;;5.80;;
52978;SDS011;51106;53.186;6.598;2022-07-04T04:44:39;6.07;;;5.03;;
52978;SDS011;51106;53.186;6.598;2022-07-04T04:46:41;9.48;;;5.57;;
52978;SDS011;51106;53.186;6.598;2022-07-04T04:48:47;9.18;;;5.55;;
52978;SDS011;51106;53.186;6.598;2022-07-04T04:50:52;11.50;;;5.18;;
52978;SDS011;51106;53.186;6.598;2022-07-04T04:52:54;9.52;;;5.30;;
52978;SDS011;51106;53.186;6.598;2022-07-04T04:54:56;10.45;;;5.70;;
52978;SDS011;51106;53.186;6.598;2022-07-04T04:56:58;10.55;;;6.28;;
52978;SDS011;51106;53.186;6.598;2022-07-04T04:59:00;10.35;;;5.03;;
52978;SDS011;51106;53.186;6.598;2022-07-04T05:01:02;10.88;;;5.35;;
52978;SDS011;51106;53.186;6.598;2022-07-04T05:03:25;9.15;;;6.05;;
52978;SDS011;51106;53.186;6.598;2022-07-04T05:05:28;7.88;;;5.63;;
52978;SDS011;51106;53.186;6.598;2022-07-04T05:07:30;8.63;;;5.15;;
52978;SDS011;51106;53.186;6.598;2022-07-04T05:09:32;11.77;;;5.70;;
52978;SDS011;51106;53.186;6.598;2022-07-04T05:11:34;9.30;;;5.72;;
52978;SDS011;51106;53.186;6.598;2022-07-04T05:13:36;11.02;;;4.80;;
52978;SDS011;51106;53.186;6.598;2022-07-04T05:15:38;6.85;;;5.63;;
52978;SDS011;51106;53.186;6.598;2022-07-04T05:17:40;10.05;;;5.65;;
52978;SDS011;51106;53.186;6.598;2022-07-04T05:19:42;11.80;;;5.65;;
52978;SDS011;51106;53.186;6.598;2022-07-04T05:21:44;7.32;;;4.88;;
52978;SDS011;51106;53.186;6.598;2022-07-04T05:23:46;11.55;;;6.10;;
52978;SDS011;51106;53.186;6.598;2022-07-04T05:25:48;6.93;;;5.70;;
52978;SDS011;51106;53.186;6.598;2022-07-04T05:27:50;8.75;;;6.03;;
52978;SDS011;51106;53.186;6.598;2022-07-04T05:29:52;10.30;;;5.68;;
52978;SDS011;51106;53.186;6.598;2022-07-04T05:31:56;8.32;;;6.03;;
52978;SDS011;51106;53.186;6.598;2022-07-04T05:33:58;12.68;;;6.15;;
52978;SDS011;51106;53.186;6.598;2022-07-04T05:36:01;8.05;;;5.70;;
52978;SDS011;51106;53.186;6.598;2022-07-04T05:38:03;12.82;;;5.50;;
52978;SDS011;51106;53.186;6.598;2022-07-04T05:40:05;9.63;;;5.68;;
52978;SDS011;51106;53.186;6.598;2022-07-04T05:42:07;11.35;;;5.60;;
52978;SDS011;51106;53.186;6.598;2022-07-04T05:44:09;8.50;;;5.65;;
52978;SDS011;51106;53.186;6.598;2022-07-04T05:46:12;8.68;;;5.53;;
52978;SDS011;51106;53.186;6.598;2022-07-04T05:48:14;9.48;;;5.22;;
52978;SDS011;51106;53.186;6.598;2022-07-04T05:50:16;9.98;;;5.45;;
52978;SDS011;51106;53.186;6.598;2022-07-04T05:52:19;12.48;;;5.88;;
52978;SDS011;51106;53.186;6.598;2022-07-04T05:54:21;9.95;;;5.30;;
52978;SDS011;51106;53.186;6.598;2022-07-04T05:56:23;9.00;;;5.53;;
52978;SDS011;51106;53.186;6.598;2022-07-04T05:58:25;13.05;;;5.32;;
52978;SDS011;51106;53.186;6.598;2022-07-04T06:00:27;11.32;;;5.35;;
52978;SDS011;51106;53.186;6.598;2022-07-04T06:02:30;11.20;;;5.20;;
52978;SDS011;51106;53.186;6.598;2022-07-04T06:04:33;9.32;;;5.75;;
52978;SDS011;51106;53.186;6.598;2022-07-04T06:06:35;12.50;;;6.20;;
52978;SDS011;51106;53.186;6.598;2022-07-04T06:08:37;10.98;;;5.95;;
52978;SDS011;51106;53.186;6.598;2022-07-04T06:10:39;7.60;;;5.85;;
52978;SDS011;51106;53.186;6.598;2022-07-04T06:12:41;13.10;;;5.80;;
52978;SDS011;51106;53.186;6.598;2022-07-04T06:14:43;11.32;;;5.25;;
52978;SDS011;51106;53.186;6.598;2022-07-04T06:16:46;9.13;;;5.85;;
52978;SDS011;51106;53.186;6.598;2022-07-04T06:18:48;8.27;;;4.40;;
52978;SDS011;51106;53.186;6.598;2022-07-04T06:20:50;12.57;;;4.88;;
52978;SDS011;51106;53.186;6.598;2022-07-04T06:22:52;7.72;;;4.88;;
52978;SDS011;51106;53.186;6.598;2022-07-04T06:24:54;7.80;;;4.57;;
52978;SDS011;51106;53.186;6.598;2022-07-04T06:26:56;6.85;;;4.05;;
52978;SDS011;51106;53.186;6.598;2022-07-04T06:28:58;6.60;;;4.10;;
52978;SDS011;51106;53.186;6.598;2022-07-04T06:31:00;8.35;;;4.72;;
52978;SDS011;51106;53.186;6.598;2022-07-04T06:33:02;12.38;;;4.60;;
52978;SDS011;51106;53.186;6.598;2022-07-04T06:35:04;6.93;;;3.63;;
52978;SDS011;51106;53.186;6.598;2022-07-04T06:37:25;8.05;;;4.55;;
52978;SDS011;51106;53.186;6.598;2022-07-04T06:39:36;9.00;;;4.40;;
52978;SDS011;51106;53.186;6.598;2022-07-04T06:41:38;8.63;;;4.40;;
52978;SDS011;51106;53.186;6.598;2022-07-04T06:43:40;8.15;;;4.47;;
52978;SDS011;51106;53.186;6.598;2022-07-04T06:45:42;8.15;;;3.88;;
52978;SDS011;51106;53.186;6.598;2022-07-04T06:47:45;8.45;;;3.97;;
52978;SDS011;51106;53.186;6.598;2022-07-04T06:49:47;8.27;;;4.15;;
52978;SDS011;51106;53.186;6.598;2022-07-04T06:51:49;9.52;;;4.60;;
52978;SDS011;51106;53.186;6.598;2022-07-04T06:53:51;9.05;;;4.45;;
52978;SDS011;51106;53.186;6.598;2022-07-04T06:55:53;8.25;;;4.10;;
52978;SDS011;51106;53.186;6.598;2022-07-04T06:57:55;11.50;;;4.55;;
52978;SDS011;51106;53.186;6.598;2022-07-04T06:59:57;10.40;;;4.22;;
52978;SDS011;51106;53.186;6.598;2022-07-04T07:01:59;9.25;;;4.03;;
52978;SDS011;51106;53.186;6.598;2022-07-04T07:04:04;6.80;;;3.70;;
52978;SDS011;51106;53.186;6.598;2022-07-04T07:06:07;6.05;;;3.90;;
52978;SDS011;51106;53.186;6.598;2022-07-04T07:10:13;6.20;;;4.00;;
52978;SDS011;51106;53.186;6.598;2022-07-04T07:12:15;6.20;;;3.70;;
52978;SDS011;51106;53.186;6.598;2022-07-04T07:14:17;6.07;;;3.47;;
52978;SDS011;51106;53.186;6.598;2022-07-04T07:16:19;9.50;;;4.07;;
52978;SDS011;51106;53.186;6.598;2022-07-04T07:18:21;8.73;;;4.03;;
52978;SDS011;51106;53.186;6.598;2022-07-04T07:20:26;10.40;;;3.92;;
52978;SDS011;51106;53.186;6.598;2022-07-04T07:22:28;9.50;;;4.03;;
52978;SDS011;51106;53.186;6.598;2022-07-04T07:24:30;8.75;;;3.60;;
52978;SDS011;51106;53.186;6.598;2022-07-04T07:26:33;8.63;;;3.63;;
52978;SDS011;51106;53.186;6.598;2022-07-04T07:28:38;10.52;;;3.80;;
52978;SDS011;51106;53.186;6.598;2022-07-04T07:30:42;5.90;;;3.60;;
52978;SDS011;51106;53.186;6.598;2022-07-04T07:32:44;7.13;;;3.80;;
52978;SDS011;51106;53.186;6.598;2022-07-04T07:34:50;9.02;;;4.05;;
52978;SDS011;51106;53.186;6.598;2022-07-04T07:36:52;8.05;;;3.80;;
52978;SDS011;51106;53.186;6.598;2022-07-04T07:38:54;8.45;;;3.70;;
52978;SDS011;51106;53.186;6.598;2022-07-04T07:40:57;11.40;;;3.65;;
52978;SDS011;51106;53.186;6.598;2022-07-04T07:43:00;5.47;;;3.05;;
52978;SDS011;51106;53.186;6.598;2022-07-04T07:45:03;7.70;;;3.40;;
52978;SDS011;51106;53.186;6.598;2022-07-04T07:47:05;9.25;;;3.40;;
52978;SDS011;51106;53.186;6.598;2022-07-04T07:49:14;7.60;;;3.53;;
52978;SDS011;51106;53.186;6.598;2022-07-04T07:51:16;7.32;;;3.53;;
52978;SDS011;51106;53.186;6.598;2022-07-04T07:53:18;7.30;;;3.75;;
52978;SDS011;51106;53.186;6.598;2022-07-04T07:55:20;6.72;;;4.00;;
52978;SDS011;51106;53.186;6.598;2022-07-04T07:57:22;6.15;;;3.70;;
52978;SDS011;51106;53.186;6.598;2022-07-04T07:59:24;9.00;;;3.97;;
52978;SDS011;51106;53.186;6.598;2022-07-04T08:01:27;7.25;;;3.88;;
52978;SDS011;51106;53.186;6.598;2022-07-04T08:03:32;7.85;;;3.72;;
52978;SDS011;51106;53.186;6.598;2022-07-04T08:05:53;8.10;;;3.90;;
52978;SDS011;51106;53.186;6.598;2022-07-04T08:07:55;6.80;;;3.40;;
52978;SDS011;51106;53.186;6.598;2022-07-04T08:09:58;9.35;;;3.63;;
52978;SDS011;51106;53.186;6.598;2022-07-04T08:12:01;8.30;;;3.13;;
52978;SDS011;51106;53.186;6.598;2022-07-04T08:14:05;7.25;;;3.65;;
52978;SDS011;51106;53.186;6.598;2022-07-04T08:16:09;9.05;;;3.50;;
52978;SDS011;51106;53.186;6.598;2022-07-04T08:18:14;5.47;;;3.30;;
52978;SDS011;51106;53.186;6.598;2022-07-04T08:20:18;7.13;;;3.60;;
52978;SDS011;51106;53.186;6.598;2022-07-04T08:22:20;10.13;;;3.80;;
52978;SDS011;51106;53.186;6.598;2022-07-04T08:24:22;7.15;;;3.40;;
52978;SDS011;51106;53.186;6.598;2022-07-04T08:26:24;6.65;;;3.45;;
52978;SDS011;51106;53.186;6.598;2022-07-04T08:28:27;7.43;;;3.20;;
52978;SDS011;51106;53.186;6.598;2022-07-04T08:30:32;6.70;;;3.55;;
52978;SDS011;51106;53.186;6.598;2022-07-04T08:32:34;6.97;;;3.47;;
52978;SDS011;51106;53.186;6.598;2022-07-04T08:34:39;8.43;;;3.47;;
52978;SDS011;51106;53.186;6.598;2022-07-04T08:36:41;13.75;;;3.83;;
52978;SDS011;51106;53.186;6.598;2022-07-04T08:38:43;7.00;;;3.20;;
52978;SDS011;51106;53.186;6.598;2022-07-04T08:40:45;7.97;;;3.47;;
52978;SDS011;51106;53.186;6.598;2022-07-04T08:42:49;5.88;;;2.88;;
52978;SDS011;51106;53.186;6.598;2022-07-04T08:44:52;8.02;;;2.80;;
52978;SDS011;51106;53.186;6.598;2022-07-04T08:46:56;5.63;;;2.95;;
52978;SDS011;51106;53.186;6.598;2022-07-04T08:48:59;3.58;;;2.40;;
52978;SDS011;51106;53.186;6.598;2022-07-04T08:51:15;6.07;;;2.83;;
52978;SDS011;51106;53.186;6.598;2022-07-04T08:53:21;5.95;;;2.53;;
52978;SDS011;51106;53.186;6.598;2022-07-04T08:55:24;4.30;;;2.22;;
52978;SDS011;51106;53.186;6.598;2022-07-04T08:57:46;6.72;;;2.55;;
52978;SDS011;51106;53.186;6.598;2022-07-04T09:00:07;5.55;;;2.20;;
52978;SDS011;51106;53.186;6.598;2022-07-04T09:02:13;4.28;;;2.40;;
52978;SDS011;51106;53.186;6.598;2022-07-04T09:04:19;4.72;;;2.28;;
52978;SDS011;51106;53.186;6.598;2022-07-04T09:06:22;3.08;;;2.25;;
52978;SDS011;51106;53.186;6.598;2022-07-04T09:08:26;4.97;;;2.22;;
52978;SDS011;51106;53.186;6.598;2022-07-04T09:10:31;5.45;;;1.98;;
52978;SDS011;51106;53.186;6.598;2022-07-04T09:12:33;3.22;;;2.28;;
52978;SDS011;51106;53.186;6.598;2022-07-04T09:14:55;5.00;;;2.22;;
52978;SDS011;51106;53.186;6.598;2022-07-04T09:16:58;2.65;;;2.05;;
52978;SDS011;51106;53.186;6.598;2022-07-04T09:19:01;3.53;;;1.98;;
52978;SDS011;51106;53.186;6.598;2022-07-04T09:21:07;3.38;;;1.92;;
52978;SDS011;51106;53.186;6.598;2022-07-04T09:23:20;5.00;;;2.20;;
52978;SDS011;51106;53.186;6.598;2022-07-04T09:25:33;6.78;;;2.65;;
52978;SDS011;51106;53.186;6.598;2022-07-04T09:27:36;4.43;;;2.08;;
52978;SDS011;51106;53.186;6.598;2022-07-04T09:29:52;4.43;;;2.15;;
52978;SDS011;51106;53.186;6.598;2022-07-04T09:31:55;4.00;;;2.03;;
52978;SDS011;51106;53.186;6.598;2022-07-04T09:34:04;2.33;;;1.90;;
52978;SDS011;51106;53.186;6.598;2022-07-04T09:36:11;3.75;;;2.40;;
52978;SDS011;51106;53.186;6.598;2022-07-04T09:38:21;4.30;;;2.10;;
52978;SDS011;51106;53.186;6.598;2022-07-04T09:40:25;3.90;;;1.90;;
52978;SDS011;51106;53.186;6.598;2022-07-04T09:42:39;4.45;;;1.90;;
52978;SDS011;51106;53.186;6.598;2022-07-04T09:44:46;3.58;;;2.10;;
52978;SDS011;51106;53.186;6.598;2022-07-04T09:46:50;3.60;;;2.03;;
52978;SDS011;51106;53.186;6.598;2022-07-04T09:48:53;4.43;;;2.05;;
52978;SDS011;51106;53.186;6.598;2022-07-04T09:50:55;4.57;;;2.08;;
52978;SDS011;51106;53.186;6.598;2022-07-04T09:53:00;2.30;;;1.90;;
52978;SDS011;51106;53.186;6.598;2022-07-04T09:55:04;3.88;;;2.10;;
52978;SDS011;51106;53.186;6.598;2022-07-04T09:57:07;4.03;;;2.13;;
52978;SDS011;51106;53.186;6.598;2022-07-04T09:59:09;3.60;;;2.00;;
52978;SDS011;51106;53.186;6.598;2022-07-04T10:01:11;5.20;;;2.00;;
52978;SDS011;51106;53.186;6.598;2022-07-04T10:03:25;2.90;;;1.80;;
52978;SDS011;51106;53.186;6.598;2022-07-04T10:05:34;3.60;;;2.25;;
52978;SDS011;51106;53.186;6.598;2022-07-04T10:07:39;3.47;;;2.00;;
52978;SDS011;51106;53.186;6.598;2022-07-04T10:09:51;3.53;;;2.20;;
52978;SDS011;51106;53.186;6.598;2022-07-04T10:11:56;4.35;;;2.00;;
52978;SDS011;51106;53.186;6.598;2022-07-04T10:13:59;3.70;;;1.80;;
52978;SDS011;51106;53.186;6.598;2022-07-04T10:16:02;4.18;;;2.03;;
52978;SDS011;51106;53.186;6.598;2022-07-04T10:18:05;3.80;;;1.88;;
52978;SDS011;51106;53.186;6.598;2022-07-04T10:20:09;2.78;;;2.05;;
52978;SDS011;51106;53.186;6.598;2022-07-04T10:22:15;5.20;;;2.00;;
52978;SDS011;51106;53.186;6.598;2022-07-04T10:24:19;3.55;;;1.90;;
52978;SDS011;51106;53.186;6.598;2022-07-04T10:26:21;3.45;;;1.90;;
52978;SDS011;51106;53.186;6.598;2022-07-04T10:28:25;3.20;;;1.90;;
52978;SDS011;51106;53.186;6.598;2022-07-04T10:30:29;2.20;;;1.80;;
52978;SDS011;51106;53.186;6.598;2022-07-04T10:32:41;3.03;;;1.90;;
52978;SDS011;51106;53.186;6.598;2022-07-04T10:34:45;3.45;;;1.90;;
52978;SDS011;51106;53.186;6.598;2022-07-04T10:36:51;5.13;;;2.00;;
52978;SDS011;51106;53.186;6.598;2022-07-04T10:38:59;4.60;;;2.00;;
52978;SDS011;51106;53.186;6.598;2022-07-04T10:45:32;6.40;;;2.05;;
52978;SDS011;51106;53.186;6.598;2022-07-04T10:47:34;2.17;;;1.75;;
52978;SDS011;51106;53.186;6.598;2022-07-04T10:49:36;2.28;;;1.83;;
52978;SDS011;51106;53.186;6.598;2022-07-04T10:53:57;5.45;;;2.10;;
52978;SDS011;51106;53.186;6.598;2022-07-04T11:01:11;5.00;;;2.00;;
52978;SDS011;51106;53.186;6.598;2022-07-04T11:03:14;2.80;;;2.05;;
52978;SDS011;51106;53.186;6.598;2022-07-04T11:05:26;4.18;;;1.90;;
52978;SDS011;51106;53.186;6.598;2022-07-04T11:09:37;3.00;;;2.03;;
52978;SDS011;51106;53.186;6.598;2022-07-04T11:11:57;3.38;;;1.98;;
52978;SDS011;51106;53.186;6.598;2022-07-04T11:16:52;3.03;;;1.90;;
52978;SDS011;51106;53.186;6.598;2022-07-04T11:18:55;4.40;;;1.80;;
52978;SDS011;51106;53.186;6.598;2022-07-04T11:20:57;5.03;;;2.00;;
52978;SDS011;51106;53.186;6.598;2022-07-04T11:23:09;5.80;;;2.35;;
52978;SDS011;51106;53.186;6.598;2022-07-04T11:25:12;2.87;;;1.87;;
52978;SDS011;51106;53.186;6.598;2022-07-04T11:27:15;4.30;;;1.93;;
52978;SDS011;51106;53.186;6.598;2022-07-04T11:29:17;2.05;;;1.65;;
52978;SDS011;51106;53.186;6.598;2022-07-04T11:31:20;4.20;;;1.90;;
52978;SDS011;51106;53.186;6.598;2022-07-04T11:33:23;3.63;;;1.83;;
52978;SDS011;51106;53.186;6.598;2022-07-04T11:35:26;3.60;;;1.88;;
52978;SDS011;51106;53.186;6.598;2022-07-04T11:37:29;2.38;;;1.65;;
52978;SDS011;51106;53.186;6.598;2022-07-04T11:39:31;5.05;;;1.70;;
52978;SDS011;51106;53.186;6.598;2022-07-04T11:41:37;4.35;;;1.90;;
52978;SDS011;51106;53.186;6.598;2022-07-04T11:44:03;4.18;;;1.90;;
52978;SDS011;51106;53.186;6.598;2022-07-04T11:46:27;3.17;;;1.90;;
52978;SDS011;51106;53.186;6.598;2022-07-04T11:48:29;1.98;;;1.50;;
52978;SDS011;51106;53.186;6.598;2022-07-04T11:50:31;2.25;;;1.70;;
52978;SDS011;51106;53.186;6.598;2022-07-04T11:54:58;2.10;;;1.70;;
52978;SDS011;51106;53.186;6.598;2022-07-04T11:59:27;3.78;;;1.70;;
52978;SDS011;51106;53.186;6.598;2022-07-04T12:01:31;5.57;;;2.00;;
52978;SDS011;51106;53.186;6.598;2022-07-04T12:03:34;5.13;;;2.17;;
52978;SDS011;51106;53.186;6.598;2022-07-04T12:05:36;4.93;;;1.80;;
52978;SDS011;51106;53.186;6.598;2022-07-04T12:07:40;3.55;;;1.88;;
52978;SDS011;51106;53.186;6.598;2022-07-04T12:10:06;3.50;;;1.85;;
52978;SDS011;51106;53.186;6.598;2022-07-04T12:12:16;2.72;;;1.90;;
52978;SDS011;51106;53.186;6.598;2022-07-04T12:14:19;3.15;;;1.63;;
52978;SDS011;51106;53.186;6.598;2022-07-04T12:16:21;2.65;;;1.70;;
52978;SDS011;51106;53.186;6.598;2022-07-04T12:18:25;3.35;;;1.70;;
52978;SDS011;51106;53.186;6.598;2022-07-04T12:20:33;5.15;;;2.00;;
52978;SDS011;51106;53.186;6.598;2022-07-04T12:22:36;2.63;;;1.75;;
52978;SDS011;51106;53.186;6.598;2022-07-04T12:24:43;2.83;;;1.63;;
52978;SDS011;51106;53.186;6.598;2022-07-04T12:26:48;4.00;;;1.90;;
52978;SDS011;51106;53.186;6.598;2022-07-04T12:28:50;4.13;;;1.80;;
52978;SDS011;51106;53.186;6.598;2022-07-04T12:30:53;2.83;;;1.90;;
52978;SDS011;51106;53.186;6.598;2022-07-04T12:32:58;3.72;;;1.77;;
52978;SDS011;51106;53.186;6.598;2022-07-04T12:35:05;2.92;;;1.80;;
52978;SDS011;51106;53.186;6.598;2022-07-04T12:37:12;2.17;;;1.70;;
52978;SDS011;51106;53.186;6.598;2022-07-04T12:39:38;4.75;;;1.90;;
52978;SDS011;51106;53.186;6.598;2022-07-04T12:41:40;4.80;;;1.60;;
52978;SDS011;51106;53.186;6.598;2022-07-04T12:45:47;3.90;;;1.90;;
52978;SDS011;51106;53.186;6.598;2022-07-04T12:47:50;2.95;;;1.80;;
52978;SDS011;51106;53.186;6.598;2022-07-04T12:49:54;4.30;;;2.17;;
52978;SDS011;51106;53.186;6.598;2022-07-04T12:52:08;6.37;;;1.80;;